Time;durP1;ratioP1;P1;durP2;ratioP2;P2;SDS_P1;SDS_P2;PMS_P1;PMS_P2;Temp;Humidity;BMP_temperature;BMP_pressure;BME280_temperature;BME280_humidity;BME280_pressure;Samples;Min_cycle;Max_cycle;Signal;HPM_P1;HPM_P2
2024/02/14 05:50:31;;;;;;;;;;;;;;;3.61;100.00;99730.52;109617;1278;22809;-56
2024/02/14 05:52:59;;;;;;;;;;;;;;;3.71;100.00;99729.68;109270;1277;22491;-48
2024/02/14 05:55:26;;;;;;;;;;;;;;;3.80;100.00;99738.30;109989;1277;22393;-48
2024/02/14 05:57:54;;;;;;;;;;;;;;;3.87;100.00;99745.16;109779;1278;22534;-57
2024/02/14 06:00:22;;;;;;;;;;;;;;;3.97;100.00;99746.55;109032;1275;23440;-49
2024/02/14 06:02:55;;;;;;;;;;;;;;;4.10;100.00;99756.09;109895;1272;23019;-48
2024/02/14 06:05:24;;;;;;;;;;;;;;;4.23;100.00;99759.27;109872;1276;22494;-57
2024/02/14 06:07:52;;;;;;;;;;;;;;;4.33;100.00;99766.84;109955;1278;22445;-48
2024/02/14 06:10:19;;;;;;;;;;;;;;;4.44;100.00;99764.59;109423;1276;25269;-58
2024/02/14 06:12:48;;;;;;;;;;;;;;;4.53;100.00;99766.99;109967;1278;22445;-48
2024/02/14 06:15:15;;;;;;;;;;;;;;;4.60;100.00;99762.79;109470;1277;22606;-58
2024/02/14 06:17:50;;;;;;;;;;;;;;;4.65;100.00;99762.02;109710;1273;22468;-56
2024/02/14 06:20:18;;;;;;;;;;;;;;;4.67;100.00;99767.20;109830;1278;23150;-58
2024/02/14 06:22:46;;;;;;;;;;;;;;;4.65;100.00;99771.33;109824;1263;22467;-57
2024/02/14 06:25:27;;;;;;;;;;;;;;;4.60;100.00;99772.64;109647;1272;22454;-57
2024/02/14 06:27:56;;;;;;;;;;;;;;;4.57;100.00;99770.36;109448;1273;23355;-57
2024/02/14 06:30:57;;;;;;;;;;;;;;;4.57;100.00;99768.42;109270;1274;22536;-59
2024/02/14 06:33:30;;;;;;;;;;;;;;;4.57;100.00;99766.02;108926;1275;24269;-55
2024/02/14 06:36:18;;;;;;;;;;;;;;;4.58;100.00;99766.55;108862;1275;23436;-48
2024/02/14 06:40:12;;;;;;;;;;;;;;;4.64;100.00;99771.14;108593;1272;23472;-60
2024/02/14 06:43:16;;;;;;;;;;;;;;;4.64;100.00;99774.60;109296;1275;22631;-48
2024/02/14 06:45:49;;;;;;;;;;;;;;;4.65;100.00;99778.94;109356;1278;22583;-57
2024/02/14 06:48:20;;;;;;;;;;;;;;;4.70;100.00;99777.80;109242;1278;247032;-57
2024/02/14 06:50:49;;;;;;;;;;;;;;;4.78;100.00;99783.46;108882;1279;22564;-49
2024/02/14 06:53:17;;;;;;;;;;;;;;;4.85;100.00;99780.97;109721;1277;23067;-60
2024/02/14 06:55:44;;;;;;;;;;;;;;;4.91;100.00;99780.36;109590;1279;23851;-58
2024/02/14 06:58:14;;;;;;;;;;;;;;;4.94;100.00;99782.13;108618;1278;22544;-56
2024/02/14 07:00:42;;;;;;;;;;;;;;;5.02;100.00;99781.20;109072;1276;23016;-58
2024/02/14 07:03:11;;;;;;;;;;;;;;;5.09;100.00;99786.32;108775;1264;24367;-61
2024/02/14 07:05:42;;;;;;;;;;;;;;;5.15;100.00;99784.34;109315;1277;22491;-48
2024/02/14 07:08:17;;;;;;;;;;;;;;;5.22;100.00;99789.96;108493;1276;22636;-51
2024/02/14 07:10:45;;;;;;;;;;;;;;;5.24;100.00;99792.94;109460;1273;22509;-53
2024/02/14 07:13:14;;;;;;;;;;;;;;;5.30;100.00;99793.17;108488;1279;22523;-61
2024/02/14 07:15:42;;;;;;;;;;;;;;;5.41;100.00;99794.88;108978;1272;22528;-49
2024/02/14 07:18:16;;;;;;;;;;;;;;;5.54;100.00;99794.87;108642;1277;22544;-58
2024/02/14 07:20:48;;;;;;;;;;;;;;;5.63;100.00;99800.86;108814;1274;22637;-59
2024/02/14 07:23:17;;;;;;;;;;;;;;;5.68;100.00;99801.62;108959;1273;22597;-50
2024/02/14 07:25:45;;;;;;;;;;;;;;;5.71;100.00;99800.96;108859;1272;24825;-58
2024/02/14 07:28:19;;;;;;;;;;;;;;;5.76;100.00;99804.30;109112;1272;22524;-56
2024/02/14 07:30:48;;;;;;;;;;;;;;;5.82;100.00;99804.55;109389;1275;24308;-61
2024/02/14 07:33:59;;;;;;;;;;;;;;;5.83;100.00;99804.90;109473;1272;22506;-52
2024/02/14 07:40:57;;;;;;;;;;;;;;;5.87;100.00;99824.67;108897;1277;22700;-50
2024/02/14 07:44:02;;;;;;;;;;;;;;;5.96;100.00;99824.80;109344;1274;22600;-50
2024/02/14 07:46:55;;;;;;;;;;;;;;;5.99;100.00;99826.76;108887;1273;22550;-60
2024/02/14 07:49:42;;;;;;;;;;;;;;;5.99;100.00;99824.34;109375;1278;23331;-49
2024/02/14 07:52:11;;;;;;;;;;;;;;;5.98;100.00;99829.88;109069;1272;22545;-57
2024/02/14 07:55:03;;;;;;;;;;;;;;;6.01;100.00;99833.52;108091;1271;23791;-58
2024/02/14 07:58:09;;;;;;;;;;;;;;;6.07;100.00;99832.39;108225;1274;22536;-57
2024/02/14 08:00:37;;;;;;;;;;;;;;;6.12;100.00;99831.39;108611;1278;23579;-59
2024/02/14 08:03:27;;;;;;;;;;;;;;;6.16;100.00;99829.88;109333;1273;22720;-49
2024/02/14 08:06:10;;;;;;;;;;;;;;;6.21;100.00;99830.28;108563;1278;22512;-57
2024/02/14 08:08:53;;;;;;;;;;;;;;;6.36;100.00;99830.08;108051;1273;23894;-51
2024/02/14 08:11:57;;;;;;;;;;;;;;;6.53;100.00;99830.75;108982;1273;22520;-49
2024/02/14 08:14:26;;;;;;;;;;;;;;;6.70;100.00;99829.86;108722;1276;22534;-58
2024/02/14 08:17:08;;;;;;;;;;;;;;;6.78;100.00;99833.74;109459;1278;22936;-49
2024/02/14 08:19:43;;;;;;;;;;;;;;;6.87;100.00;99830.67;108926;1273;22977;-52
2024/02/14 08:22:12;;;;;;;;;;;;;;;6.95;100.00;99838.73;109239;1270;22545;-49
2024/02/14 08:24:39;;;;;;;;;;;;;;;7.03;100.00;99838.95;109591;1278;22505;-59
2024/02/14 08:27:07;;;;;;;;;;;;;;;7.07;100.00;99839.68;109605;1272;22977;-49
2024/02/14 08:29:40;;;;;;;;;;;;;;;7.13;100.00;99839.89;109404;1278;22438;-47
2024/02/14 08:32:17;;;;;;;;;;;;;;;7.19;100.00;99840.64;109587;1272;22449;-50
2024/02/14 08:35:16;;;;;;;;;;;;;;;7.21;100.00;99851.05;109418;1272;22601;-53
2024/02/14 08:38:32;;;;;;;;;;;;;;;7.29;100.00;99849.36;109481;1273;22496;-49
2024/02/14 08:41:26;;;;;;;;;;;;;;;7.34;100.00;99854.25;109869;1273;22434;-47
2024/02/14 08:43:53;;;;;;;;;;;;;;;7.36;100.00;99860.86;109853;1263;22464;-49
2024/02/14 08:46:23;;;;;;;;;;;;;;;7.36;100.00;99862.58;109912;1275;22644;-60
2024/02/14 08:48:51;;;;;;;;;;;;;;;7.39;100.00;99865.04;109830;1272;22787;-58
2024/02/14 08:51:20;;;;;;;;;;;;;;;7.42;100.00;99861.24;109646;1276;22553;-52
2024/02/14 08:53:48;;;;;;;;;;;;;;;7.46;100.00;99864.73;109454;1272;26830;-54
2024/02/14 08:56:23;;;;;;;;;;;;;;;7.53;100.00;99870.32;108649;1273;23188;-48
2024/02/14 08:58:51;;;;;;;;;;;;;;;7.60;100.00;99868.80;107225;1273;24234;-47
2024/02/14 09:01:21;;;;;;;;;;;;;;;7.68;100.00;99871.96;109835;1272;22605;-50
2024/02/14 09:03:49;;;;;;;;;;;;;;;7.77;100.00;99874.96;109903;1276;22495;-48
2024/02/14 09:06:20;;;;;;;;;;;;;;;7.79;100.00;99873.93;109842;1273;22459;-48
2024/02/14 09:08:57;;;;;;;;;;;;;;;7.81;100.00;99868.90;109036;1272;22622;-50
2024/02/14 09:11:28;;;;;;;;;;;;;;;7.89;100.00;99863.20;108830;1273;22517;-48
2024/02/14 09:14:04;;;;;;;;;;;;;;;8.05;100.00;99864.30;108882;1274;23401;-47
2024/02/14 09:16:42;;;;;;;;;;;;;;;8.19;100.00;99873.91;108935;1271;23183;-55
2024/02/14 09:19:38;;;;;;;;;;;;;;;8.36;100.00;99874.84;109313;1273;22603;-55
2024/02/14 09:22:23;;;;;;;;;;;;;;;8.49;100.00;99882.35;109617;1276;22493;-55
2024/02/14 09:29:05;;;;;;;;;;;;;;;8.64;100.00;99889.34;109129;1274;22563;-48
2024/02/14 09:32:16;;;;;;;;;;;;;;;8.65;100.00;99892.64;108764;1273;22530;-60
2024/02/14 09:34:56;;;;;;;;;;;;;;;8.64;100.00;99890.55;109159;1264;22515;-51
2024/02/14 09:38:08;;;;;;;;;;;;;;;8.52;100.00;99902.52;109553;1273;22540;-58
2024/02/14 09:40:42;;;;;;;;;;;;;;;8.50;100.00;99905.64;108951;1273;22624;-58
2024/02/14 09:43:25;;;;;;;;;;;;;;;8.48;100.00;99908.60;108653;1264;22528;-49
2024/02/14 09:45:54;;;;;;;;;;;;;;;8.49;100.00;99915.55;109787;1278;22514;-46
2024/02/14 09:48:21;;;;;;;;;;;;;;;8.50;100.00;99917.98;109433;1273;22529;-50
2024/02/14 09:50:49;;;;;;;;;;;;;;;8.49;100.00;99919.73;109669;1273;23513;-50
2024/02/14 09:53:19;;;;;;;;;;;;;;;8.49;100.00;99914.68;109840;1273;22493;-55
2024/02/14 09:55:47;;;;;;;;;;;;;;;8.48;100.00;99911.38;109674;1277;22565;-55
2024/02/14 09:58:15;;;;;;;;;;;;;;;8.47;100.00;99914.68;109314;1278;23045;-54
2024/02/14 10:00:43;;;;;;;;;;;;;;;8.47;100.00;99915.89;109688;1275;22433;-56
2024/02/14 10:03:16;;;;;;;;;;;;;;;8.46;100.00;99915.71;109522;1273;22510;-57
2024/02/14 10:05:45;;;;;;;;;;;;;;;8.43;100.00;99914.31;109286;1261;23247;-49
2024/02/14 10:08:13;;;;;;;;;;;;;;;8.36;100.00;99905.60;109613;1276;22910;-55
2024/02/14 10:10:41;;;;;;;;;;;;;;;8.36;100.00;99907.86;109644;1273;22431;-47
2024/02/14 10:13:08;;;;;;;;;;;;;;;8.42;100.00;99910.49;109162;1278;23878;-48
2024/02/14 10:15:36;;;;;;;;;;;;;;;8.46;100.00;99913.80;109723;1278;23133;-55
2024/02/14 10:18:04;;;;;;;;;;;;;;;8.41;100.00;99920.40;109684;1264;23204;-48
2024/02/14 10:20:34;;;;;;;;;;;;;;;8.35;100.00;99919.84;109121;1277;22959;-57
2024/02/14 10:23:03;;;;;;;;;;;;;;;8.35;100.00;99913.05;109477;1275;22534;-47
2024/02/14 10:25:34;;;;;;;;;;;;;;;8.38;100.00;99910.48;109073;1273;22538;-56
2024/02/14 10:28:08;;;;;;;;;;;;;;;8.39;100.00;99902.14;109354;1275;23026;-55
2024/02/14 10:30:40;;;;;;;;;;;;;;;8.32;100.00;99905.57;108713;1277;22888;-48
2024/02/14 10:33:09;;;;;;;;;;;;;;;8.25;100.00;99910.06;109364;1274;22541;-48
2024/02/14 10:35:50;;;;;;;;;;;;;;;8.23;100.00;99915.29;109496;1274;22471;-55
2024/02/14 10:38:20;;;;;;;;;;;;;;;8.26;100.00;99914.59;108790;1273;22552;-49
2024/02/14 10:40:49;;;;;;;;;;;;;;;8.24;100.00;99912.33;109614;1274;23314;-49
2024/02/14 10:43:17;;;;;;;;;;;;;;;8.23;100.00;99912.32;109576;1277;22481;-48
2024/02/14 10:45:45;;;;;;;;;;;;;;;8.30;100.00;99914.59;109625;1273;22856;-50
2024/02/14 10:48:18;;;;;;;;;;;;;;;8.36;100.00;99916.73;109625;1273;22492;-55
2024/02/14 10:50:46;;;;;;;;;;;;;;;8.37;100.00;99909.79;109752;1274;22530;-54
2024/02/14 10:53:15;;;;;;;;;;;;;;;8.38;100.00;99907.17;109194;1273;24390;-49
2024/02/14 10:55:45;;;;;;;;;;;;;;;8.38;100.00;99905.09;109859;1273;23144;-55
2024/02/14 10:58:14;;;;;;;;;;;;;;;8.40;100.00;99904.74;109889;1273;22419;-55
2024/02/14 11:00:43;;;;;;;;;;;;;;;8.47;100.00;99902.33;109402;1272;22535;-56
2024/02/14 11:03:14;;;;;;;;;;;;;;;8.59;100.00;99904.10;108679;1272;22500;-49
2024/02/14 11:05:47;;;;;;;;;;;;;;;8.71;100.00;99904.45;109604;1273;23419;-48
2024/02/14 11:08:27;;;;;;;;;;;;;;;8.83;100.00;99901.52;109697;1273;26487;-48
2024/02/14 11:10:56;;;;;;;;;;;;;;;8.93;100.00;99902.74;108835;1271;26470;-49
2024/02/14 11:13:33;;;;;;;;;;;;;;;9.01;100.00;99910.23;108940;1273;23334;-49
2024/02/14 11:16:04;;;;;;;;;;;;;;;9.09;100.00;99908.32;108958;1278;22925;-56
2024/02/14 11:18:39;;;;;;;;;;;;;;;9.17;100.00;99905.17;109254;1272;22545;-57
2024/02/14 11:21:19;;;;;;;;;;;;;;;9.24;100.00;99907.95;109299;1273;23737;-56
2024/02/14 11:23:54;;;;;;;;;;;;;;;9.32;100.00;99906.23;109484;1275;22431;-49
2024/02/14 11:39:06;;;;;;;;;;;;;;;9.33;100.00;99905.16;110010;1278;23242;-49
2024/02/14 11:42:22;;;;;;;;;;;;;;;9.31;100.00;99907.08;109839;1278;22464;-56
2024/02/14 11:56:02;;;;;;;;;;;;;;;9.33;100.00;99912.65;109891;1273;23522;-49
2024/02/14 11:58:35;;;;;;;;;;;;;;;9.42;100.00;99912.46;109299;1273;23041;-48
2024/02/14 12:01:27;;;;;;;;;;;;;;;9.53;100.00;99914.36;109749;1277;22477;-49
2024/02/14 12:04:03;;;;;;;;;;;;;;;9.65;100.00;99910.33;109144;1278;26466;-48
2024/02/14 12:06:36;;;;;;;;;;;;;;;9.74;100.00;99908.23;109569;1273;22914;-56
2024/02/14 12:09:05;;;;;;;;;;;;;;;9.79;100.00;99915.00;109739;1278;23403;-49
2024/02/14 12:11:33;;;;;;;;;;;;;;;9.78;100.00;99917.43;109549;1273;22603;-57
2024/02/14 12:14:02;;;;;;;;;;;;;;;9.71;100.00;99925.99;109823;1274;22445;-53
2024/02/14 12:16:32;;;;;;;;;;;;;;;9.64;100.00;99924.79;109688;1277;22570;-48
2024/02/14 12:19:09;;;;;;;;;;;;;;;9.61;100.00;99925.48;109242;1278;23217;-50
2024/02/14 12:21:39;;;;;;;;;;;;;;;9.63;100.00;99924.11;109631;1272;22516;-52
2024/02/14 12:24:10;;;;;;;;;;;;;;;9.63;100.00;99921.14;109519;1274;23538;-49
2024/02/14 12:26:38;;;;;;;;;;;;;;;9.65;100.00;99922.70;109579;1273;22561;-51
2024/02/14 12:29:09;;;;;;;;;;;;;;;9.71;100.00;99922.51;109678;1273;23419;-57
2024/02/14 12:31:36;;;;;;;;;;;;;;;9.81;100.00;99926.33;109716;1273;22441;-49
2024/02/14 12:34:07;;;;;;;;;;;;;;;9.84;100.00;99933.80;109846;1272;22607;-49
2024/02/14 12:36:36;;;;;;;;;;;;;;;9.86;100.00;99936.41;109548;1273;22497;-62
2024/02/14 12:39:04;;;;;;;;;;;;;;;9.88;100.00;99935.70;109673;1274;22636;-58
2024/02/14 12:41:31;;;;;;;;;;;;;;;9.89;100.00;99937.80;109888;1274;22457;-48
2024/02/14 12:44:00;;;;;;;;;;;;;;;9.89;100.00;99935.69;109780;1273;22435;-57
2024/02/14 12:46:28;;;;;;;;;;;;;;;9.90;100.00;99937.79;109767;1276;22530;-48
2024/02/14 12:48:56;;;;;;;;;;;;;;;9.90;100.00;99939.52;109855;1274;23204;-48
2024/02/14 12:51:28;;;;;;;;;;;;;;;9.92;100.00;99945.27;108686;1278;22522;-51
2024/02/14 12:53:56;;;;;;;;;;;;;;;9.96;100.00;99945.44;108177;1272;22477;-48
2024/02/14 12:56:24;;;;;;;;;;;;;;;10.02;100.00;99947.16;109997;1278;22473;-56
2024/02/14 12:58:52;;;;;;;;;;;;;;;10.09;100.00;99952.02;109992;1278;23121;-47
2024/02/14 13:01:20;;;;;;;;;;;;;;;10.13;100.00;99955.81;109976;1278;23229;-47
2024/02/14 13:03:48;;;;;;;;;;;;;;;10.17;100.00;99960.88;109998;1278;22437;-56
2024/02/14 13:06:15;;;;;;;;;;;;;;;10.20;100.00;99960.50;109794;1278;22539;-56
2024/02/14 13:08:43;;;;;;;;;;;;;;;10.21;100.00;99966.09;109950;1273;22498;-56
2024/02/14 13:11:11;;;;;;;;;;;;;;;10.24;100.00;99970.64;110055;1272;22880;-47
2024/02/14 13:13:41;;;;;;;;;;;;;;;10.23;100.00;99968.88;110043;1272;22446;-55
2024/02/14 13:16:09;;;;;;;;;;;;;;;10.18;100.00;99969.24;109264;1278;22480;-47
2024/02/14 13:18:36;;;;;;;;;;;;;;;10.10;100.00;99965.27;109859;1272;22482;-55
2024/02/14 13:21:05;;;;;;;;;;;;;;;10.09;100.00;99968.91;109929;1272;22450;-47
2024/02/14 13:23:32;;;;;;;;;;;;;;;10.15;100.00;99967.15;109803;1276;22952;-47
2024/02/14 13:26:03;;;;;;;;;;;;;;;10.26;100.00;99967.48;109945;1272;23001;-48
2024/02/14 13:28:31;;;;;;;;;;;;;;;10.44;100.00;99967.94;109796;1278;23239;-57
2024/02/14 13:30:58;;;;;;;;;;;;;;;10.61;100.00;99967.15;109745;1276;22495;-48
2024/02/14 13:33:26;;;;;;;;;;;;;;;10.74;100.00;99971.80;109748;1273;22999;-57
2024/02/14 13:35:54;;;;;;;;;;;;;;;10.82;100.00;99972.27;109811;1273;23445;-58
2024/02/14 13:38:21;;;;;;;;;;;;;;;10.83;100.00;99971.89;109767;1274;22450;-47
2024/02/14 13:40:49;;;;;;;;;;;;;;;10.82;100.00;99972.61;109871;1272;22474;-47
2024/02/14 13:43:17;;;;;;;;;;;;;;;10.83;100.00;99975.73;109866;1273;22873;-55
2024/02/14 13:45:45;;;;;;;;;;;;;;;10.77;100.00;99976.49;109944;1278;23181;-47
2024/02/14 13:48:13;;;;;;;;;;;;;;;10.65;100.00;99975.68;109887;1277;22452;-46
2024/02/14 13:50:42;;;;;;;;;;;;;;;10.58;100.00;99973.98;109853;1277;22430;-56
2024/02/14 13:53:10;;;;;;;;;;;;;;;10.57;100.00;99972.94;109959;1278;22439;-48
2024/02/14 13:55:39;;;;;;;;;;;;;;;10.54;100.00;99972.60;109365;1277;22531;-56
2024/02/14 13:58:13;;;;;;;;;;;;;;;10.50;100.00;99975.59;108651;1278;23475;-56
2024/02/14 14:00:42;;;;;;;;;;;;;;;10.42;100.00;99978.94;109878;1273;22545;-56
2024/02/14 14:03:11;;;;;;;;;;;;;;;10.29;100.00;99981.43;109945;1278;22467;-48
2024/02/14 14:05:39;;;;;;;;;;;;;;;10.18;100.00;99982.48;109954;1278;22869;-48
2024/02/14 14:08:07;;;;;;;;;;;;;;;10.12;100.00;99985.97;109951;1278;22469;-57
2024/02/14 14:10:35;;;;;;;;;;;;;;;10.11;100.00;99985.48;109935;1278;22423;-57
2024/02/14 14:13:03;;;;;;;;;;;;;;;10.09;100.00;99990.54;109933;1272;23148;-47
2024/02/14 14:15:32;;;;;;;;;;;;;;;10.05;100.00;99995.58;109332;1278;22535;-49
2024/02/14 14:18:00;;;;;;;;;;;;;;;9.98;100.00;99998.74;108787;1278;22556;-57
2024/02/14 14:20:28;;;;;;;;;;;;;;;9.93;100.00;100002.59;109274;1278;22606;-58
2024/02/14 14:22:55;;;;;;;;;;;;;;;9.88;100.00;100007.66;109501;1278;22539;-47
2024/02/14 14:25:23;;;;;;;;;;;;;;;9.84;100.00;100014.61;109999;1278;23104;-57
2024/02/14 14:27:51;;;;;;;;;;;;;;;9.81;100.00;100017.94;109878;1278;22472;-48
2024/02/14 14:30:18;;;;;;;;;;;;;;;9.79;100.00;100021.94;109703;1273;22542;-57
2024/02/14 14:32:46;;;;;;;;;;;;;;;9.79;100.00;100025.23;109982;1278;22435;-57
2024/02/14 14:35:14;;;;;;;;;;;;;;;9.80;100.00;100031.88;109984;1271;22529;-48
2024/02/14 14:37:42;;;;;;;;;;;;;;;9.79;100.00;100033.44;109445;1278;22486;-47
2024/02/14 14:40:10;;;;;;;;;;;;;;;9.77;100.00;100035.35;110004;1278;22837;-49
2024/02/14 14:42:38;;;;;;;;;;;;;;;9.77;100.00;100035.88;109627;1272;22623;-58
2024/02/14 14:45:06;;;;;;;;;;;;;;;9.77;100.00;100037.80;109987;1278;22477;-57
2024/02/14 14:47:34;;;;;;;;;;;;;;;9.75;100.00;100034.84;109985;1278;22506;-57
2024/02/14 14:50:03;;;;;;;;;;;;;;;9.73;100.00;100038.14;109953;1278;22455;-48
2024/02/14 14:52:31;;;;;;;;;;;;;;;9.67;100.00;100041.11;109682;1278;22508;-57
2024/02/14 14:54:59;;;;;;;;;;;;;;;9.61;100.00;100044.94;109994;1272;23186;-48
2024/02/14 14:57:27;;;;;;;;;;;;;;;9.58;100.00;100051.91;108056;1278;22523;-58
2024/02/14 14:59:54;;;;;;;;;;;;;;;9.56;100.00;100049.11;109242;1278;22523;-58
2024/02/14 15:02:22;;;;;;;;;;;;;;;9.53;100.00;100055.91;109280;1278;22481;-48
2024/02/14 15:04:50;;;;;;;;;;;;;;;9.49;100.00;100056.25;109543;1278;22883;-48
2024/02/14 15:07:20;;;;;;;;;;;;;;;9.47;100.00;100060.27;108643;1279;22523;-49
2024/02/14 15:09:47;;;;;;;;;;;;;;;9.45;100.00;100059.40;109348;1279;22507;-59
2024/02/14 15:12:15;;;;;;;;;;;;;;;9.41;100.00;100061.82;107670;1278;22860;-57
2024/02/14 15:14:43;;;;;;;;;;;;;;;9.34;100.00;100063.55;107776;1278;24210;-57
2024/02/14 15:17:10;;;;;;;;;;;;;;;9.27;100.00;100066.67;108184;1278;22558;-58
